createdAt,value
2019-02-11T00:00:10.031Z,32.98
2019-02-11T00:02:41.992Z,30.27
2019-02-11T00:05:12.176Z,33.48
2019-02-11T00:07:42.447Z,31.80
2019-02-11T00:10:12.730Z,28.80
2019-02-11T00:12:43.545Z,31.45
2019-02-11T00:15:13.808Z,27.35
2019-02-11T00:17:45.141Z,29.05
2019-02-11T00:20:15.298Z,32.15
2019-02-11T00:22:45.434Z,32.60
2019-02-11T00:25:15.648Z,32.58
2019-02-11T00:27:46.052Z,32.65
2019-02-11T00:30:16.311Z,31.55
2019-02-11T00:32:46.627Z,37.05
2019-02-11T00:35:17.679Z,35.00
2019-02-11T00:37:48.099Z,32.10
2019-02-11T00:40:18.326Z,35.68
2019-02-11T00:42:48.560Z,34.30
2019-02-11T00:45:18.863Z,35.60
2019-02-11T00:47:49.119Z,35.15
2019-02-11T00:50:19.469Z,34.75
2019-02-11T00:52:49.710Z,36.55
2019-02-11T00:55:21.138Z,38.67
2019-02-11T00:57:51.427Z,37.05
2019-02-11T01:00:21.707Z,35.28
2019-02-11T01:02:52.215Z,37.63
2019-02-11T01:05:22.748Z,36.68
2019-02-11T01:07:53.052Z,38.73
2019-02-11T01:10:23.264Z,37.95
2019-02-11T01:12:53.559Z,39.75
2019-02-11T01:15:23.790Z,35.68
2019-02-11T01:17:54.168Z,37.15
2019-02-11T01:20:24.517Z,37.50
2019-02-11T01:22:54.718Z,37.95
2019-02-11T01:25:24.942Z,38.38
2019-02-11T01:27:55.162Z,38.92
2019-02-11T01:30:25.415Z,37.93
2019-02-11T01:32:55.678Z,39.18
2019-02-11T01:35:26.959Z,40.30
2019-02-11T01:37:57.283Z,37.45
2019-02-11T01:40:27.625Z,34.27
2019-02-11T01:42:57.963Z,25.15
2019-02-11T01:45:28.398Z,27.85
2019-02-11T01:47:58.712Z,26.57
2019-02-11T01:50:28.953Z,19.80
2019-02-11T01:52:59.461Z,24.32
2019-02-11T01:55:29.696Z,23.55
2019-02-11T01:58:00.247Z,25.48
2019-02-11T02:00:30.635Z,22.10
2019-02-11T02:03:00.966Z,18.60
2019-02-11T02:05:33.150Z,18.32
2019-02-11T02:08:03.460Z,21.40
2019-02-11T02:10:33.842Z,22.60
2019-02-11T02:13:04.270Z,19.45
2019-02-11T02:15:34.497Z,18.67
2019-02-11T02:18:04.878Z,15.48
2019-02-11T02:20:35.226Z,16.00
2019-02-11T02:23:06.516Z,13.93
2019-02-11T02:25:36.847Z,11.65
2019-02-11T02:28:08.441Z,13.00
2019-02-11T02:30:38.800Z,13.13
2019-02-11T02:33:09.100Z,12.25
2019-02-11T02:35:40.324Z,13.05
2019-02-11T02:38:10.739Z,13.95
2019-02-11T02:40:40.871Z,11.60
2019-02-11T02:43:11.215Z,14.43
2019-02-11T02:45:41.423Z,14.23
2019-02-11T02:48:11.830Z,13.80
2019-02-11T02:50:41.993Z,16.12
2019-02-11T02:53:12.263Z,14.75
2019-02-11T02:55:42.702Z,14.00
2019-02-11T02:58:13.134Z,16.07
2019-02-11T03:00:43.505Z,18.12
2019-02-11T03:03:13.699Z,15.63
2019-02-11T03:05:44.028Z,15.23
2019-02-11T03:08:14.286Z,13.03
2019-02-11T03:10:44.631Z,14.95
2019-02-11T03:13:15.003Z,12.88
2019-02-11T03:15:45.264Z,14.03
2019-02-11T03:18:15.715Z,12.23
2019-02-11T03:20:45.905Z,9.73
2019-02-11T03:23:16.096Z,15.60
2019-02-11T03:25:46.386Z,12.03
2019-02-11T03:28:16.633Z,10.18
2019-02-11T03:30:46.852Z,10.88
2019-02-11T03:33:17.112Z,11.70
2019-02-11T03:35:48.192Z,10.53
2019-02-11T03:38:18.514Z,12.05
2019-02-11T03:40:48.779Z,11.63
2019-02-11T03:43:19.073Z,10.78
2019-02-11T03:45:49.279Z,13.53
2019-02-11T03:48:19.643Z,11.43
2019-02-11T03:50:49.955Z,14.47
2019-02-11T03:53:20.318Z,18.32
2019-02-11T03:55:50.942Z,17.05
2019-02-11T03:58:21.267Z,18.17
2019-02-11T04:00:51.692Z,16.15
2019-02-11T04:03:21.885Z,17.98
2019-02-11T04:05:52.388Z,15.50
2019-02-11T04:08:22.879Z,16.07
2019-02-11T04:10:53.080Z,14.07
2019-02-11T04:13:23.487Z,11.45
2019-02-11T04:15:53.807Z,9.88
2019-02-11T04:18:24.263Z,10.82
2019-02-11T04:20:54.435Z,8.25
2019-02-11T04:23:25.010Z,9.33
2019-02-11T04:25:55.234Z,9.80
2019-02-11T04:28:25.512Z,8.55
2019-02-11T04:30:57.032Z,9.33
2019-02-11T04:33:27.371Z,8.75
2019-02-11T04:35:58.896Z,8.28
2019-02-11T04:38:29.173Z,10.45
2019-02-11T04:40:59.441Z,9.45
2019-02-11T04:43:29.560Z,8.15
2019-02-11T04:45:59.795Z,9.88
2019-02-11T04:48:29.978Z,9.28
2019-02-11T04:51:00.258Z,8.35
2019-02-11T04:53:30.549Z,7.45
2019-02-11T04:56:00.739Z,9.78
2019-02-11T04:58:31.062Z,8.80
2019-02-11T05:01:01.479Z,8.15
2019-02-11T05:03:32.234Z,7.12
2019-02-11T05:06:02.593Z,7.05
2019-02-11T05:08:33.695Z,9.13
2019-02-11T05:11:03.922Z,8.75
2019-02-11T05:13:34.351Z,7.83
2019-02-11T05:16:06.544Z,8.75
2019-02-11T05:18:36.927Z,9.25
2019-02-11T05:21:07.468Z,10.08
2019-02-11T05:23:37.998Z,8.53
2019-02-11T05:26:08.319Z,8.83
2019-02-11T05:28:38.554Z,8.75
2019-02-11T05:31:08.807Z,9.45
2019-02-11T05:33:39.084Z,8.50
2019-02-11T05:36:10.207Z,6.67
2019-02-11T05:38:40.464Z,9.85
2019-02-11T05:41:10.753Z,9.00
2019-02-11T05:43:41.175Z,11.35
2019-02-11T05:46:11.367Z,10.50
2019-02-11T05:48:41.670Z,9.80
2019-02-11T05:51:11.936Z,11.33
2019-02-11T05:53:42.230Z,9.60
2019-02-11T05:56:12.423Z,9.90
2019-02-11T05:58:42.604Z,9.70
2019-02-11T06:01:12.905Z,10.70
2019-02-11T06:03:43.506Z,10.43
2019-02-11T06:06:14.504Z,8.08
2019-02-11T06:08:44.863Z,9.03
2019-02-11T06:11:15.128Z,9.78
2019-02-11T06:13:45.463Z,10.48
2019-02-11T06:16:17.088Z,12.53
2019-02-11T06:18:47.380Z,16.80
2019-02-11T06:21:17.535Z,13.50
2019-02-11T06:23:47.854Z,14.98
2019-02-11T06:26:18.243Z,10.85
2019-02-11T06:28:48.542Z,10.38
2019-02-11T06:31:18.946Z,9.78
2019-02-11T06:33:49.177Z,9.93
2019-02-11T06:36:20.273Z,11.25
2019-02-11T06:38:50.455Z,14.35
2019-02-11T06:41:20.799Z,12.65
2019-02-11T06:43:51.100Z,10.00
2019-02-11T06:46:21.294Z,12.88
2019-02-11T06:48:51.582Z,10.30
2019-02-11T06:51:21.851Z,10.58
2019-02-11T06:53:52.052Z,10.40
2019-02-11T06:56:22.350Z,10.10
2019-02-11T06:58:52.849Z,10.82
2019-02-11T07:01:22.956Z,9.95
2019-02-11T07:03:53.144Z,10.03
2019-02-11T07:06:23.419Z,9.70
2019-02-11T07:08:53.701Z,10.23
2019-02-11T07:11:23.867Z,8.98
2019-02-11T07:13:54.300Z,9.35
2019-02-11T07:16:24.643Z,10.32
2019-02-11T07:18:54.974Z,9.93
2019-02-11T07:21:25.223Z,9.85
2019-02-11T07:23:55.496Z,9.83
2019-02-11T07:26:25.899Z,8.75
2019-02-11T07:28:56.068Z,10.35
2019-02-11T07:31:26.540Z,9.13
2019-02-11T07:33:56.818Z,11.08
2019-02-11T07:36:28.021Z,9.73
2019-02-11T07:38:58.610Z,8.18
2019-02-11T07:41:30.421Z,6.92
2019-02-11T07:44:02.529Z,4.70
2019-02-11T07:46:34.472Z,5.50
2019-02-11T07:49:04.721Z,7.50
2019-02-11T07:51:42.187Z,8.50
2019-02-11T07:54:07.033Z,7.55
2019-02-11T07:56:37.222Z,7.05
2019-02-11T07:59:07.374Z,7.50
2019-02-11T08:01:37.775Z,8.68
2019-02-11T08:04:07.971Z,5.40
2019-02-11T08:06:38.212Z,6.42
2019-02-11T08:09:10.069Z,6.55
2019-02-11T08:11:40.251Z,8.28
2019-02-11T08:14:10.702Z,6.75
2019-02-11T08:16:40.952Z,6.40
2019-02-11T08:19:11.274Z,7.65
2019-02-11T08:21:41.597Z,5.80
2019-02-11T08:24:11.786Z,6.97
2019-02-11T08:26:41.983Z,5.62
2019-02-11T08:29:12.230Z,4.95
2019-02-11T08:31:42.659Z,7.17
2019-02-11T08:34:12.947Z,5.47
2019-02-11T08:36:44.115Z,7.90
2019-02-11T08:39:14.487Z,6.42
2019-02-11T08:41:45.643Z,5.03
2019-02-11T08:44:16.069Z,7.10
2019-02-11T08:46:48.192Z,7.60
2019-02-11T08:49:18.726Z,10.58
2019-02-11T08:51:48.943Z,6.50
2019-02-11T08:54:19.098Z,5.35
2019-02-11T08:56:49.386Z,5.95
2019-02-11T08:59:19.559Z,5.75
2019-02-11T09:01:49.608Z,6.58
2019-02-11T09:04:19.846Z,8.83
2019-02-11T09:06:49.939Z,7.17
2019-02-11T09:09:20.170Z,6.50
2019-02-11T09:11:50.363Z,5.78
2019-02-11T09:14:20.722Z,6.50
2019-02-11T09:16:50.938Z,5.55
2019-02-11T09:19:21.146Z,6.85
2019-02-11T09:21:51.260Z,5.72
2019-02-11T09:24:21.447Z,9.60
2019-02-11T09:26:51.634Z,7.42
2019-02-11T09:29:21.855Z,5.90
2019-02-11T09:31:52.023Z,6.20
2019-02-11T09:34:22.201Z,8.15
2019-02-11T09:36:52.375Z,6.45
2019-02-11T09:39:22.571Z,7.58
2019-02-11T09:41:52.751Z,6.08
2019-02-11T09:44:29.486Z,10.53
2019-02-11T09:46:55.246Z,7.08
2019-02-11T09:49:25.522Z,9.28
2019-02-11T09:51:55.793Z,6.22
2019-02-11T09:54:25.959Z,6.45
2019-02-11T09:56:56.171Z,6.65
2019-02-11T09:59:26.315Z,8.58
2019-02-11T10:01:56.568Z,5.40
2019-02-11T10:04:27.084Z,6.70
2019-02-11T10:06:57.194Z,6.42
2019-02-11T10:09:27.385Z,5.12
2019-02-11T10:11:57.550Z,7.30
2019-02-11T10:14:27.803Z,6.08
2019-02-11T10:16:57.980Z,7.45
2019-02-11T10:19:28.151Z,6.12
2019-02-11T10:21:58.368Z,8.88
2019-02-11T10:24:28.548Z,7.25
2019-02-11T10:26:58.954Z,7.50
2019-02-11T10:29:29.132Z,8.00
2019-02-11T10:31:59.394Z,7.10
2019-02-11T10:34:29.511Z,8.23
2019-02-11T10:37:00.729Z,8.50
2019-02-11T10:39:30.987Z,9.28
2019-02-11T10:42:01.161Z,6.25
2019-02-11T10:44:31.525Z,7.80
2019-02-11T10:47:01.638Z,7.33
2019-02-11T10:49:31.810Z,8.55
2019-02-11T10:52:01.986Z,8.75
2019-02-11T10:54:32.372Z,10.20
2019-02-11T10:57:02.662Z,15.43
2019-02-11T10:59:33.082Z,8.25
2019-02-11T11:02:03.653Z,6.65
2019-02-11T11:04:33.911Z,8.93
2019-02-11T11:07:04.106Z,10.90
2019-02-11T11:09:34.288Z,7.95
2019-02-11T11:12:04.634Z,10.48
2019-02-11T11:14:34.906Z,14.45
2019-02-11T11:17:07.107Z,9.98
2019-02-11T11:19:37.320Z,10.10
2019-02-11T11:22:07.987Z,8.55
2019-02-11T11:24:38.225Z,8.98
2019-02-11T11:27:08.421Z,11.35
2019-02-11T11:29:39.631Z,11.53
2019-02-11T11:32:10.175Z,13.38
2019-02-11T11:34:40.396Z,10.15
2019-02-11T11:37:11.462Z,7.22
2019-02-11T11:39:41.695Z,8.10
2019-02-11T11:42:11.937Z,6.47
2019-02-11T11:44:42.117Z,9.13
2019-02-11T11:47:12.432Z,9.90
2019-02-11T11:49:42.609Z,10.10
2019-02-11T11:52:12.915Z,6.83
2019-02-11T11:54:44.143Z,6.33
2019-02-11T11:57:14.464Z,5.67
2019-02-11T11:59:44.631Z,6.45
2019-02-11T12:02:16.342Z,5.35
2019-02-11T12:04:47.015Z,5.72
2019-02-11T12:07:17.215Z,10.72
2019-02-11T12:09:47.949Z,5.05
2019-02-11T12:12:18.391Z,8.33
2019-02-11T12:14:48.729Z,6.72
2019-02-11T12:17:18.894Z,6.03
2019-02-11T12:19:49.045Z,6.60
2019-02-11T12:22:19.167Z,6.30
2019-02-11T12:24:49.382Z,4.65
2019-02-11T12:27:20.767Z,4.67
2019-02-11T12:29:50.978Z,5.60
2019-02-11T12:32:21.327Z,6.10
2019-02-11T12:34:51.670Z,7.08
2019-02-11T12:37:22.764Z,4.95
2019-02-11T12:39:53.260Z,5.97
2019-02-11T12:42:23.522Z,7.05
2019-02-11T12:44:53.810Z,6.25
2019-02-11T12:47:24.022Z,11.08
2019-02-11T12:49:54.263Z,7.50
2019-02-11T12:52:24.471Z,5.67
2019-02-11T12:54:54.721Z,6.90
2019-02-11T12:57:24.927Z,6.30
2019-02-11T12:59:55.144Z,8.40
2019-02-11T13:02:25.318Z,8.95
2019-02-11T13:04:55.514Z,8.75
2019-02-11T13:07:25.715Z,6.75
2019-02-11T13:09:56.133Z,8.95
2019-02-11T13:12:26.363Z,10.80
2019-02-11T13:14:56.641Z,10.25
2019-02-11T13:17:33.722Z,11.15
2019-02-11T13:20:08.378Z,12.65
2019-02-11T13:22:30.473Z,13.83
2019-02-11T13:25:00.679Z,10.85
2019-02-11T13:27:32.171Z,11.88
2019-02-11T13:30:02.379Z,11.15
2019-02-11T13:32:34.102Z,11.48
2019-02-11T13:35:05.009Z,13.60
2019-02-11T13:37:36.165Z,14.87
2019-02-11T13:40:08.515Z,15.95
2019-02-11T13:42:38.834Z,12.80
2019-02-11T13:45:12.204Z,13.65
2019-02-11T13:47:53.400Z,17.27
2019-02-11T13:50:19.933Z,14.73
2019-02-11T13:52:50.819Z,12.15
2019-02-11T13:55:21.256Z,15.98
2019-02-11T13:57:52.154Z,17.25
2019-02-11T14:00:25.791Z,17.62
2019-02-11T14:03:00.830Z,17.25
2019-02-11T14:05:31.700Z,17.05
2019-02-11T14:08:02.869Z,16.02
2019-02-11T14:10:33.145Z,17.95
2019-02-11T14:13:04.253Z,17.07
2019-02-11T14:15:34.537Z,23.02
2019-02-11T14:18:14.030Z,16.02
2019-02-11T14:20:41.653Z,19.62
2019-02-11T14:23:12.017Z,12.15
2019-02-11T14:25:46.409Z,16.75
2019-02-11T14:28:14.298Z,17.02
2019-02-11T14:30:44.617Z,15.85
2019-02-11T14:33:15.182Z,20.35
2019-02-11T14:35:46.232Z,15.63
2019-02-11T14:38:17.867Z,22.17
2019-02-11T14:40:48.316Z,21.35
2019-02-11T14:43:18.759Z,19.92
2019-02-11T14:45:49.741Z,18.32
2019-02-11T14:48:27.877Z,22.15
2019-02-11T14:50:52.378Z,27.25
2019-02-11T14:53:23.149Z,22.30
2019-02-11T14:55:53.589Z,22.40
2019-02-11T14:58:23.812Z,27.80
2019-02-11T15:00:54.004Z,25.17
2019-02-11T15:03:24.191Z,24.32
2019-02-11T15:05:54.547Z,25.77
2019-02-11T15:08:24.846Z,25.57
2019-02-11T15:10:55.047Z,27.93
2019-02-11T15:13:25.284Z,22.70
2019-02-11T15:15:55.555Z,22.77
2019-02-11T15:18:33.958Z,22.45
2019-02-11T15:20:57.554Z,20.48
2019-02-11T15:23:27.807Z,20.25
2019-02-11T15:25:58.038Z,17.95
2019-02-11T15:28:28.199Z,20.10
2019-02-11T15:30:58.483Z,19.20
2019-02-11T15:33:28.705Z,23.02
2019-02-11T15:35:58.826Z,21.35
2019-02-11T15:38:29.791Z,27.42
2019-02-11T15:41:00.834Z,31.40
2019-02-11T15:43:31.024Z,25.97
2019-02-11T15:46:01.126Z,30.15
2019-02-11T15:48:31.501Z,28.12
2019-02-11T15:51:01.754Z,27.35
2019-02-11T15:53:32.327Z,33.20
2019-02-11T15:56:07.721Z,41.13
2019-02-11T15:58:34.372Z,50.17
2019-02-11T16:01:04.675Z,31.95
2019-02-11T16:03:34.923Z,28.20
2019-02-11T16:06:10.112Z,27.75
2019-02-11T16:08:37.210Z,27.75
2019-02-11T16:11:07.358Z,26.73
2019-02-11T16:13:37.568Z,26.05
2019-02-11T16:16:07.851Z,29.35
2019-02-11T16:18:37.922Z,26.37
2019-02-11T16:21:08.201Z,24.80
2019-02-11T16:23:38.382Z,32.78
2019-02-11T16:26:08.662Z,24.23
2019-02-11T16:28:38.799Z,21.10
2019-02-11T16:31:09.122Z,21.60
2019-02-11T16:33:39.364Z,24.02
2019-02-11T16:36:09.595Z,23.60
2019-02-11T16:38:40.607Z,25.68
2019-02-11T16:41:10.661Z,29.18
2019-02-11T16:43:40.955Z,25.82
2019-02-11T16:46:11.628Z,26.68
2019-02-11T16:48:41.936Z,20.37
2019-02-11T16:51:12.432Z,22.00
2019-02-11T16:53:42.631Z,23.80
2019-02-11T16:56:12.775Z,21.40
2019-02-11T16:58:42.979Z,18.85
2019-02-11T17:01:13.463Z,23.85
2019-02-11T17:03:43.888Z,18.75
2019-02-11T17:06:14.115Z,19.30
2019-02-11T17:08:44.433Z,18.32
2019-02-11T17:11:14.659Z,17.67
2019-02-11T17:13:44.913Z,17.05
2019-02-11T17:16:15.042Z,16.32
2019-02-11T17:18:45.203Z,17.48
2019-02-11T17:21:15.323Z,15.05
2019-02-11T17:23:45.375Z,15.65
2019-02-11T17:26:15.612Z,16.42
2019-02-11T17:28:45.932Z,18.70
2019-02-11T17:31:16.421Z,19.60
2019-02-11T17:33:46.677Z,22.73
2019-02-11T17:36:16.950Z,24.30
2019-02-11T17:38:48.023Z,25.95
2019-02-11T17:41:18.159Z,24.15
2019-02-11T17:43:48.362Z,21.25
2019-02-11T17:46:18.570Z,22.55
2019-02-11T17:48:48.864Z,22.30
2019-02-11T17:51:19.099Z,20.82
2019-02-11T17:53:49.360Z,19.32
2019-02-11T17:56:19.639Z,17.35
2019-02-11T17:58:49.760Z,23.27
2019-02-11T18:01:20.077Z,19.02
2019-02-11T18:03:50.347Z,13.75
2019-02-11T18:06:20.543Z,14.13
2019-02-11T18:08:50.699Z,18.80
2019-02-11T18:11:20.988Z,15.28
2019-02-11T18:13:51.267Z,16.80
2019-02-11T18:16:22.195Z,19.80
2019-02-11T18:18:52.511Z,16.80
2019-02-11T18:21:22.642Z,16.05
2019-02-11T18:23:53.038Z,14.25
2019-02-11T18:26:23.195Z,18.37
2019-02-11T18:28:53.397Z,17.77
2019-02-11T18:31:23.611Z,17.45
2019-02-11T18:33:53.988Z,19.65
2019-02-11T18:36:24.195Z,20.72
2019-02-11T18:38:55.456Z,20.52
2019-02-11T18:41:25.740Z,20.45
2019-02-11T18:43:55.951Z,21.15
2019-02-11T18:46:26.171Z,21.73
2019-02-11T18:48:56.428Z,23.52
2019-02-11T18:51:26.980Z,25.92
2019-02-11T18:53:57.202Z,24.70
2019-02-11T18:56:27.497Z,24.45
2019-02-11T18:58:57.804Z,29.52
2019-02-11T19:01:27.946Z,21.97
2019-02-11T19:03:58.541Z,22.48
2019-02-11T19:06:28.838Z,27.85
2019-02-11T19:08:59.175Z,28.40
2019-02-11T19:11:30.750Z,24.37
2019-02-11T19:14:01.127Z,32.13
2019-02-11T19:16:31.422Z,25.43
2019-02-11T19:19:01.745Z,31.42
2019-02-11T19:21:32.019Z,26.15
2019-02-11T19:24:02.267Z,26.55
2019-02-11T19:26:39.080Z,24.05
2019-02-11T19:29:09.384Z,22.95
2019-02-11T19:31:39.639Z,25.08
2019-02-11T19:34:09.791Z,18.95
2019-02-11T19:36:41.107Z,27.27
2019-02-11T19:39:13.271Z,24.75
2019-02-11T19:41:43.552Z,27.00
2019-02-11T19:44:14.817Z,23.95
2019-02-11T19:46:45.035Z,23.07
2019-02-11T19:49:15.246Z,24.87
2019-02-11T19:51:45.460Z,29.07
2019-02-11T19:54:15.723Z,17.90
2019-02-11T19:56:46.035Z,30.90
2019-02-11T19:59:16.287Z,26.42
2019-02-11T20:01:46.640Z,27.55
2019-02-11T20:04:16.901Z,29.37
2019-02-11T20:06:47.044Z,31.35
2019-02-11T20:09:17.380Z,28.52
2019-02-11T20:11:47.666Z,29.65
2019-02-11T20:14:17.782Z,26.15
2019-02-11T20:16:48.271Z,30.95
2019-02-11T20:19:18.430Z,36.83
2019-02-11T20:21:48.972Z,27.22
2019-02-11T20:24:19.268Z,28.62
2019-02-11T20:26:49.615Z,31.33
2019-02-11T20:29:19.899Z,33.58
2019-02-11T20:31:50.170Z,32.17
2019-02-11T20:34:20.395Z,35.23
2019-02-11T20:36:51.105Z,32.63
2019-02-11T20:39:22.159Z,35.28
2019-02-11T20:41:52.412Z,28.25
2019-02-11T20:44:22.620Z,33.67
2019-02-11T20:46:53.165Z,29.90
2019-02-11T20:49:23.386Z,27.00
2019-02-11T20:51:53.482Z,20.00
2019-02-11T20:54:23.636Z,29.15
2019-02-11T20:56:54.271Z,27.82
2019-02-11T20:59:24.573Z,25.70
2019-02-11T21:01:54.872Z,22.77
2019-02-11T21:04:25.218Z,17.65
2019-02-11T21:06:55.456Z,16.82
2019-02-11T21:09:25.721Z,18.35
2019-02-11T21:11:56.059Z,19.48
2019-02-11T21:14:26.363Z,17.02
2019-02-11T21:16:56.601Z,15.98
2019-02-11T21:19:26.900Z,20.20
2019-02-11T21:21:57.011Z,21.73
2019-02-11T21:24:27.643Z,18.42
2019-02-11T21:26:57.858Z,18.37
2019-02-11T21:29:28.397Z,20.92
2019-02-11T21:31:58.833Z,20.37
2019-02-11T21:34:28.979Z,20.27
2019-02-11T21:36:59.311Z,20.32
2019-02-11T21:39:29.603Z,19.95
2019-02-11T21:41:59.833Z,26.35
2019-02-11T21:44:30.030Z,22.65
2019-02-11T21:47:00.631Z,25.85
2019-02-11T21:49:30.916Z,22.27
2019-02-11T21:52:01.486Z,28.15
2019-02-11T21:54:31.764Z,32.08
2019-02-11T21:57:02.221Z,31.55
2019-02-11T21:59:32.725Z,29.02
2019-02-11T22:02:02.985Z,19.92
2019-02-11T22:04:33.351Z,28.15
2019-02-11T22:07:04.353Z,21.35
2019-02-11T22:09:35.144Z,31.15
2019-02-11T22:12:05.584Z,24.82
2019-02-11T22:14:35.824Z,26.40
2019-02-11T22:17:06.395Z,23.85
2019-02-11T22:19:36.546Z,23.90
2019-02-11T22:22:06.851Z,23.62
2019-02-11T22:24:37.036Z,22.40
2019-02-11T22:27:07.313Z,25.02
2019-02-11T22:29:37.500Z,24.37
2019-02-11T22:32:08.961Z,22.73
2019-02-11T22:34:39.366Z,22.90
2019-02-11T22:37:09.497Z,20.15
2019-02-11T22:39:39.759Z,18.25
2019-02-11T22:42:09.960Z,20.80
2019-02-11T22:44:40.208Z,17.77
2019-02-11T22:47:10.676Z,17.77
2019-02-11T22:49:40.859Z,18.82
2019-02-11T22:52:11.113Z,18.23
2019-02-11T22:54:41.319Z,20.15
2019-02-11T22:57:11.459Z,18.00
2019-02-11T22:59:41.603Z,22.65
2019-02-11T23:02:11.747Z,20.27
2019-02-11T23:04:42.001Z,16.52
2019-02-11T23:07:12.483Z,16.42
2019-02-11T23:09:42.683Z,21.27
2019-02-11T23:12:12.912Z,23.62
2019-02-11T23:14:43.236Z,20.57
2019-02-11T23:17:13.501Z,25.70
2019-02-11T23:19:43.726Z,20.35
2019-02-11T23:22:14.031Z,21.55
2019-02-11T23:24:44.266Z,21.75
2019-02-11T23:27:14.603Z,21.75
2019-02-11T23:29:44.871Z,22.75
2019-02-11T23:32:16.175Z,23.35
2019-02-11T23:34:46.438Z,25.60
2019-02-11T23:37:16.885Z,20.45
2019-02-11T23:39:47.237Z,25.15
2019-02-11T23:42:17.512Z,20.95
2019-02-11T23:44:47.707Z,20.92
2019-02-11T23:47:18.007Z,22.90
2019-02-11T23:49:48.568Z,24.98
2019-02-11T23:52:18.640Z,23.00
2019-02-11T23:54:48.923Z,22.42
2019-02-11T23:57:19.188Z,23.77
2019-02-11T23:59:49.424Z,27.75
